Time;durP1;ratioP1;P1;durP2;ratioP2;P2;SDS_P1;SDS_P2;PMS_P1;PMS_P2;Temp;Humidity;BMP_temperature;BMP_pressure;BME280_temperature;BME280_humidity;BME280_pressure;Samples;Min_cycle;Max_cycle;Signal;HPM_P1;HPM_P2
2022/10/25 00:00:52;;;;;;;16.05;7.53;;;12.90;99.90;;;;;;5110117;28;20059;-92
2022/10/25 00:03:18;;;;;;;18.10;8.05;;;12.90;99.90;;;;;;5067381;28;20173;-92
2022/10/25 00:05:43;;;;;;;19.42;7.82;;;12.90;99.90;;;;;;5086042;28;20032;-92
2022/10/25 00:08:09;;;;;;;19.67;8.60;;;13.80;99.90;;;;;;5094653;28;20039;-91
2022/10/25 00:10:36;;;;;;;17.35;8.18;;;13.70;99.90;;;;;;5115589;28;20036;-92
2022/10/25 00:13:05;;;;;;;18.27;8.45;;;12.80;99.90;;;;;;5101042;28;20039;-92
2022/10/25 00:15:30;;;;;;;19.40;9.35;;;13.50;99.90;;;;;;5093652;28;20068;-91
2022/10/25 00:17:56;;;;;;;20.25;9.68;;;14.00;99.90;;;;;;5101061;28;20098;-92
2022/10/25 00:20:22;;;;;;;20.30;10.02;;;13.40;99.90;;;;;;5115878;28;20071;-92
2022/10/25 00:22:48;;;;;;;18.52;9.18;;;13.30;99.90;;;;;;5094723;28;20088;-92
2022/10/25 00:25:13;;;;;;;19.70;9.48;;;12.70;99.90;;;;;;5077560;28;20549;-92
2022/10/25 00:27:39;;;;;;;20.95;9.30;;;12.70;99.90;;;;;;5096852;28;20067;-92
2022/10/25 00:30:06;;;;;;;21.83;10.00;;;12.80;99.90;;;;;;5095804;28;20048;-92
2022/10/25 00:32:34;;;;;;;22.98;9.95;;;12.70;99.90;;;;;;5076191;28;20044;-92
2022/10/25 00:35:00;;;;;;;20.83;10.05;;;13.70;99.90;;;;;;5094733;28;20044;-92
2022/10/25 00:37:26;;;;;;;22.60;10.60;;;13.20;99.90;;;;;;5095104;28;20047;-92
2022/10/25 00:39:51;;;;;;;18.83;10.68;;;12.80;99.90;;;;;;5060212;28;20055;-92
2022/10/25 00:42:24;;;;;;;25.02;10.95;;;12.70;99.90;;;;;;5095426;28;20544;-92
2022/10/25 00:44:55;;;;;;;24.40;11.20;;;12.70;99.90;;;;;;5077707;28;20075;-92
2022/10/25 00:47:20;;;;;;;17.63;9.02;;;12.80;99.90;;;;;;5078251;28;20052;-92
2022/10/25 00:49:52;;;;;;;21.85;10.77;;;13.10;99.90;;;;;;5081829;28;20414;-92
2022/10/25 00:52:18;;;;;;;21.83;10.70;;;13.20;99.90;;;;;;5081728;28;20158;-92
2022/10/25 00:54:47;;;;;;;29.30;11.88;;;13.60;99.90;;;;;;5077316;28;20077;-92
2022/10/25 00:57:26;;;;;;;21.30;10.52;;;13.20;99.90;;;;;;5078456;28;20121;-90
2022/10/25 00:59:52;;;;;;;28.02;11.85;;;13.00;99.90;;;;;;5094556;28;20139;-92
2022/10/25 01:02:21;;;;;;;23.08;11.18;;;13.00;99.90;;;;;;5087286;28;20514;-91
2022/10/25 01:04:46;;;;;;;23.70;12.00;;;14.30;99.90;;;;;;5105851;28;20096;-92
2022/10/25 01:07:12;;;;;;;22.25;11.10;;;13.00;99.90;;;;;;5095265;28;20040;-93
2022/10/25 01:09:39;;;;;;;25.17;11.93;;;13.10;99.90;;;;;;5089284;28;20043;-92
2022/10/25 01:12:05;;;;;;;23.08;11.95;;;13.00;99.90;;;;;;5091813;28;20383;-92
2022/10/25 01:14:32;;;;;;;30.30;13.80;;;13.10;99.90;;;;;;5115369;28;20100;-92
2022/10/25 01:17:27;;;;;;;27.52;13.32;;;13.10;99.90;;;;;;5093037;28;20044;-93
2022/10/25 01:20:09;;;;;;;28.35;13.23;;;13.20;99.90;;;;;;5077779;28;20095;-92
2022/10/25 01:22:43;;;;;;;27.75;13.68;;;13.50;99.90;;;;;;5086938;28;20501;-92
2022/10/25 01:25:45;;;;;;;28.90;13.80;;;13.10;99.90;;;;;;5076520;28;20048;-92
2022/10/25 01:28:23;;;;;;;28.02;14.13;;;13.10;99.90;;;;;;5097201;28;20314;-91
2022/10/25 01:31:22;;;;;;;27.27;13.27;;;13.10;99.90;;;;;;5093214;28;20055;-92
2022/10/25 01:34:05;;;;;;;28.90;13.55;;;13.20;99.90;;;;;;5096843;28;20039;-91
2022/10/25 01:36:57;;;;;;;23.83;12.50;;;13.20;99.90;;;;;;5096190;28;20044;-92
2022/10/25 01:39:39;;;;;;;26.02;12.10;;;13.30;99.90;;;;;;5086920;28;20052;-92
2022/10/25 01:42:27;;;;;;;28.58;13.05;;;13.20;99.90;;;;;;5115536;28;20048;-92
2022/10/25 01:45:18;;;;;;;26.45;12.10;;;13.20;99.90;;;;;;5093646;28;20123;-91
2022/10/25 01:47:51;;;;;;;24.92;12.82;;;13.20;99.90;;;;;;5056343;28;20087;-91
2022/10/25 01:50:23;;;;;;;25.42;12.82;;;13.20;99.90;;;;;;5076795;28;20079;-93
2022/10/25 01:52:51;;;;;;;26.08;12.27;;;13.20;99.90;;;;;;5097646;28;20052;-92
2022/10/25 01:55:21;;;;;;;27.23;13.73;;;13.20;99.90;;;;;;5079413;28;20078;-92
2022/10/25 01:58:25;;;;;;;24.95;12.38;;;13.10;99.90;;;;;;5098585;28;20044;-92
2022/10/25 02:01:04;;;;;;;20.38;11.48;;;13.10;99.90;;;;;;5100478;28;20036;-92
2022/10/25 02:03:56;;;;;;;22.30;10.98;;;13.20;99.90;;;;;;5099882;28;20048;-93
2022/10/25 02:06:54;;;;;;;21.08;9.85;;;13.20;99.90;;;;;;5122858;28;20044;-93
2022/10/25 02:09:40;;;;;;;19.38;10.25;;;13.20;99.90;;;;;;5046108;28;20047;-92
2022/10/25 02:12:12;;;;;;;18.35;10.00;;;13.20;99.90;;;;;;5109070;28;20052;-92
2022/10/25 02:14:44;;;;;;;22.52;10.50;;;13.50;99.90;;;;;;5115998;28;20067;-91
2022/10/25 02:17:19;;;;;;;18.80;9.20;;;13.90;99.90;;;;;;5081812;28;20043;-92
2022/10/25 02:19:59;;;;;;;19.60;10.50;;;13.20;99.90;;;;;;5098050;28;20113;-92
2022/10/25 02:22:31;;;;;;;18.42;11.10;;;14.50;99.90;;;;;;5080848;28;20435;-92
2022/10/25 02:24:58;;;;;;;19.98;10.95;;;13.30;99.90;;;;;;5065287;28;20078;-92
2022/10/25 02:27:25;;;;;;;21.95;10.75;;;14.20;99.90;;;;;;5099237;28;20131;-92
2022/10/25 02:29:52;;;;;;;17.92;10.27;;;13.30;99.90;;;;;;5083117;28;20080;-92
2022/10/25 02:32:18;;;;;;;20.27;10.45;;;13.30;99.90;;;;;;5072805;28;20039;-92
2022/10/25 02:34:47;;;;;;;18.88;10.73;;;13.70;99.90;;;;;;5081293;28;20533;-92
2022/10/25 02:37:13;;;;;;;19.23;10.65;;;13.80;99.90;;;;;;5091689;28;20051;-90
2022/10/25 02:39:39;;;;;;;19.38;9.77;;;13.20;99.90;;;;;;5084332;28;20047;-90
2022/10/25 02:42:05;;;;;;;22.35;10.55;;;13.70;99.90;;;;;;5089438;28;20549;-90
2022/10/25 02:44:30;;;;;;;21.50;10.30;;;13.20;99.90;;;;;;5097841;28;20043;-91
2022/10/25 02:46:57;;;;;;;20.10;10.77;;;14.30;99.90;;;;;;5081973;28;20107;-92
2022/10/25 02:49:22;;;;;;;25.30;11.75;;;13.40;99.90;;;;;;5100658;28;20044;-92
2022/10/25 02:51:49;;;;;;;18.60;11.35;;;14.60;99.90;;;;;;5098469;28;20042;-92
2022/10/25 02:54:15;;;;;;;20.58;11.73;;;13.40;99.90;;;;;;5085421;28;20080;-92
2022/10/25 02:56:40;;;;;;;22.10;11.75;;;13.30;99.90;;;;;;5081137;28;20043;-92
2022/10/25 02:59:06;;;;;;;22.80;11.77;;;13.30;99.90;;;;;;5078237;28;20044;-92
2022/10/25 03:01:32;;;;;;;21.25;11.80;;;14.40;99.90;;;;;;5096510;28;20079;-92
2022/10/25 03:03:57;;;;;;;20.65;11.85;;;13.90;99.90;;;;;;5078981;28;20536;-92
2022/10/25 03:06:23;;;;;;;19.98;12.20;;;13.30;99.90;;;;;;5088975;28;20044;-92
2022/10/25 03:08:48;;;;;;;20.40;11.23;;;13.40;99.90;;;;;;5079032;28;20078;-93
2022/10/25 03:11:15;;;;;;;22.40;12.02;;;13.50;99.90;;;;;;5093755;28;20357;-91
2022/10/25 03:13:41;;;;;;;23.77;12.38;;;13.50;99.90;;;;;;5098338;28;20044;-92
2022/10/25 03:16:07;;;;;;;19.55;11.38;;;13.40;99.90;;;;;;5117498;28;20035;-92
2022/10/25 03:18:33;;;;;;;20.85;11.23;;;13.40;99.90;;;;;;5087893;28;20048;-92
2022/10/25 03:21:00;;;;;;;16.48;11.35;;;13.50;99.90;;;;;;5096958;28;20062;-91
2022/10/25 03:23:27;;;;;;;20.98;11.32;;;14.70;99.90;;;;;;5094188;28;20101;-91
2022/10/25 03:25:54;;;;;;;16.75;10.25;;;14.00;99.90;;;;;;5102240;28;20119;-92
2022/10/25 03:28:20;;;;;;;20.65;10.38;;;14.20;99.90;;;;;;5116844;28;20059;-92
2022/10/25 03:30:46;;;;;;;24.67;10.82;;;13.40;99.90;;;;;;5106483;28;20497;-92
2022/10/25 03:33:11;;;;;;;21.10;10.00;;;13.40;99.90;;;;;;5096214;28;20109;-91
2022/10/25 03:35:37;;;;;;;17.33;9.07;;;13.40;99.90;;;;;;5081307;28;20093;-91
2022/10/25 03:38:03;;;;;;;19.17;9.07;;;13.40;99.90;;;;;;5082489;28;20128;-92
2022/10/25 03:40:29;;;;;;;19.17;9.50;;;13.40;99.90;;;;;;5091508;28;20561;-92
2022/10/25 03:42:55;;;;;;;16.88;9.18;;;13.90;99.90;;;;;;5101968;28;20491;-92
2022/10/25 03:45:21;;;;;;;22.83;8.70;;;14.20;99.90;;;;;;5104446;28;20094;-91
2022/10/25 03:47:46;;;;;;;18.88;8.80;;;13.40;99.90;;;;;;5098134;28;20039;-92
2022/10/25 03:50:12;;;;;;;16.35;8.70;;;14.30;99.90;;;;;;5098233;28;20152;-92
2022/10/25 03:52:38;;;;;;;17.35;8.35;;;14.50;99.90;;;;;;5081202;28;20131;-92
2022/10/25 03:55:05;;;;;;;19.42;7.90;;;14.60;99.90;;;;;;5097978;28;20135;-92
2022/10/25 03:57:31;;;;;;;18.77;7.82;;;13.40;99.90;;;;;;5117946;28;20042;-92
2022/10/25 03:59:58;;;;;;;22.23;8.88;;;13.40;99.90;;;;;;5117532;28;20100;-92
2022/10/25 04:02:25;;;;;;;23.33;8.38;;;13.50;99.90;;;;;;5098792;28;20040;-92
2022/10/25 04:04:51;;;;;;;21.63;9.10;;;13.50;99.90;;;;;;5097791;28;20043;-91
2022/10/25 04:07:16;;;;;;;16.85;8.70;;;14.90;99.90;;;;;;5097664;28;20101;-92
2022/10/25 04:09:42;;;;;;;20.38;9.27;;;14.10;99.90;;;;;;5098484;28;20404;-92
2022/10/25 04:12:08;;;;;;;22.58;9.73;;;13.50;99.90;;;;;;5095121;28;20036;-92
2022/10/25 04:14:33;;;;;;;23.98;10.27;;;14.70;99.90;;;;;;5095867;28;20544;-92
2022/10/25 04:16:59;;;;;;;22.05;10.75;;;13.40;99.90;;;;;;5077810;28;20036;-92
2022/10/25 04:19:25;;;;;;;21.42;11.05;;;14.20;99.90;;;;;;5097206;28;20074;-92
2022/10/25 04:21:53;;;;;;;20.98;10.27;;;14.90;99.90;;;;;;5083451;28;20096;-92
2022/10/25 04:24:19;;;;;;;20.67;10.18;;;13.40;99.90;;;;;;5080062;28;20039;-93
2022/10/25 04:26:46;;;;;;;22.02;11.15;;;13.40;99.90;;;;;;5079396;28;20048;-92
2022/10/25 04:29:11;;;;;;;24.33;11.52;;;13.30;99.90;;;;;;5078464;28;20040;-92
2022/10/25 04:31:37;;;;;;;21.20;11.43;;;13.30;99.90;;;;;;5076430;28;20100;-92
2022/10/25 04:34:03;;;;;;;22.75;11.57;;;13.20;99.90;;;;;;5063622;28;20044;-93
2022/10/25 04:36:29;;;;;;;24.70;10.35;;;13.10;99.90;;;;;;5069366;28;20050;-92
2022/10/25 04:38:55;;;;;;;31.83;11.90;;;13.20;99.90;;;;;;5080322;28;20055;-92
2022/10/25 04:41:21;;;;;;;26.50;11.50;;;13.20;99.90;;;;;;5094009;28;20066;-91
2022/10/25 04:43:49;;;;;;;23.63;11.43;;;13.20;99.90;;;;;;5079242;28;20166;-92
2022/10/25 04:46:15;;;;;;;28.13;12.40;;;13.20;99.90;;;;;;5077940;28;20036;-92
2022/10/25 04:48:41;;;;;;;23.10;11.50;;;13.10;99.90;;;;;;5062589;28;20126;-92
2022/10/25 04:51:08;;;;;;;25.30;12.23;;;13.10;99.90;;;;;;5094229;28;20123;-92
2022/10/25 04:53:34;;;;;;;29.60;11.43;;;14.00;99.90;;;;;;5096807;28;20043;-92
2022/10/25 04:56:06;;;;;;;23.02;10.63;;;13.00;99.90;;;;;;5076639;28;20046;-92
2022/10/25 04:58:32;;;;;;;28.65;12.05;;;13.10;99.90;;;;;;5082228;28;20039;-92
2022/10/25 05:01:00;;;;;;;29.30;11.75;;;13.10;99.90;;;;;;5070326;28;20127;-92
2022/10/25 05:03:27;;;;;;;28.40;11.90;;;13.10;99.90;;;;;;5066635;28;20075;-92
2022/10/25 05:05:52;;;;;;;30.25;12.45;;;13.20;99.90;;;;;;5073841;28;20052;-92
2022/10/25 05:08:18;;;;;;;25.23;11.02;;;13.00;99.90;;;;;;5060940;28;20055;-92
2022/10/25 05:10:44;;;;;;;26.67;11.60;;;13.00;99.90;;;;;;5093119;28;20032;-92
2022/10/25 05:13:09;;;;;;;29.90;11.05;;;13.10;99.90;;;;;;5099671;28;20052;-92
2022/10/25 05:15:35;;;;;;;23.33;11.32;;;13.00;99.90;;;;;;5081502;28;20046;-92
2022/10/25 05:18:01;;;;;;;29.02;11.93;;;13.00;99.90;;;;;;5077262;28;20047;-91
2022/10/25 05:20:27;;;;;;;28.83;11.77;;;12.90;99.90;;;;;;5098372;28;20050;-92
2022/10/25 05:22:55;;;;;;;26.92;11.68;;;13.00;99.90;;;;;;5080864;28;20052;-92
2022/10/25 05:25:21;;;;;;;26.83;11.95;;;13.40;99.90;;;;;;5078995;28;20122;-92
2022/10/25 05:27:46;;;;;;;33.17;12.57;;;12.50;99.90;;;;;;5064463;28;20044;-92
2022/10/25 05:30:12;;;;;;;28.33;11.95;;;13.00;99.90;;;;;;5083272;28;20036;-91
2022/10/25 05:32:38;;;;;;;29.88;12.85;;;13.00;99.90;;;;;;5065729;28;20036;-92
2022/10/25 05:35:04;;;;;;;28.00;12.23;;;13.00;99.90;;;;;;5086549;28;20063;-92
2022/10/25 05:37:29;;;;;;;27.05;12.38;;;13.00;99.90;;;;;;5095181;28;20092;-92
2022/10/25 05:39:55;;;;;;;27.70;12.80;;;14.20;99.90;;;;;;5103709;28;20052;-92
2022/10/25 05:42:21;;;;;;;32.97;13.30;;;13.10;99.90;;;;;;5101900;28;20040;-92
2022/10/25 05:44:46;;;;;;;30.75;13.10;;;13.10;99.90;;;;;;5105696;28;20043;-91
2022/10/25 05:47:12;;;;;;;33.40;13.88;;;14.40;99.90;;;;;;5101707;28;20400;-92
2022/10/25 05:49:39;;;;;;;28.20;13.32;;;13.20;99.90;;;;;;5098520;28;20040;-92
2022/10/25 05:52:09;;;;;;;28.13;12.30;;;14.40;99.90;;;;;;5085597;28;20055;-92
2022/10/25 05:54:34;;;;;;;32.75;14.27;;;14.60;99.90;;;;;;5106737;28;20048;-93
2022/10/25 05:57:00;;;;;;;34.90;14.07;;;14.50;99.90;;;;;;5083621;28;20052;-92
2022/10/25 05:59:26;;;;;;;33.80;12.70;;;13.20;99.90;;;;;;5120521;28;20036;-91
2022/10/25 06:01:51;;;;;;;29.73;12.50;;;13.00;99.90;;;;;;5104000;28;20364;-92
2022/10/25 06:04:17;;;;;;;30.02;12.85;;;14.30;99.90;;;;;;5121674;28;20035;-92
2022/10/25 06:06:46;;;;;;;28.73;12.68;;;13.40;99.90;;;;;;5099560;28;20051;-91
2022/10/25 06:09:12;;;;;;;28.15;12.45;;;13.30;99.90;;;;;;5080346;28;20129;-91
2022/10/25 06:11:39;;;;;;;27.30;11.85;;;14.20;99.90;;;;;;5081563;28;20044;-92
2022/10/25 06:14:05;;;;;;;26.55;10.75;;;;;;;;;;5065313;28;20322;-92
2022/10/25 06:16:32;;;;;;;22.85;11.18;;;13.30;99.90;;;;;;5066665;28;20048;-91
2022/10/25 06:18:58;;;;;;;24.35;11.02;;;13.30;99.90;;;;;;5069240;28;20042;-91
2022/10/25 06:21:27;;;;;;;26.05;9.93;;;14.40;99.90;;;;;;5101317;28;20070;-92
2022/10/25 06:23:54;;;;;;;28.30;10.55;;;13.20;99.90;;;;;;5096118;28;20553;-92
2022/10/25 06:26:23;;;;;;;27.13;9.77;;;13.20;99.90;;;;;;5102791;28;20084;-91
2022/10/25 06:28:55;;;;;;;26.13;9.82;;;13.20;99.90;;;;;;5085672;28;20040;-92
2022/10/25 06:31:22;;;;;;;21.45;8.52;;;13.20;99.90;;;;;;5086549;28;20047;-91
2022/10/25 06:33:47;;;;;;;26.83;9.35;;;13.20;99.90;;;;;;5104500;28;20039;-92
2022/10/25 06:36:22;;;;;;;22.38;8.65;;;13.10;99.90;;;;;;5087746;28;20043;-92
2022/10/25 06:38:49;;;;;;;25.98;8.40;;;13.10;99.90;;;;;;5089981;28;20068;-92
2022/10/25 06:41:17;;;;;;;29.95;8.80;;;12.20;99.90;;;;;;5067757;28;20067;-91
2022/10/25 06:43:43;;;;;;;26.92;8.50;;;13.20;99.90;;;;;;5068638;28;20052;-92
2022/10/25 06:46:24;;;;;;;24.05;8.15;;;13.20;99.90;;;;;;5052379;28;20192;-92
2022/10/25 06:48:52;;;;;;;25.80;9.27;;;13.20;99.90;;;;;;5085743;28;20059;-91
2022/10/25 06:51:19;;;;;;;23.35;8.77;;;14.40;99.90;;;;;;5101840;28;20035;-91
2022/10/25 06:53:44;;;;;;;23.13;8.13;;;13.10;99.90;;;;;;5107517;28;20069;-92
2022/10/25 06:56:12;;;;;;;25.42;8.50;;;13.30;99.90;;;;;;5104725;28;20063;-91
2022/10/25 06:58:37;;;;;;;25.92;8.43;;;14.60;99.90;;;;;;5119311;28;20039;-92
2022/10/25 07:01:05;;;;;;;22.60;7.85;;;14.30;99.90;;;;;;5123056;28;20035;-92
2022/10/25 07:03:34;;;;;;;19.70;7.35;;;13.20;99.90;;;;;;5124307;28;20047;-91
2022/10/25 07:06:08;;;;;;;20.15;7.97;;;13.30;99.90;;;;;;5129605;28;20399;-91
2022/10/25 07:08:39;;;;;;;21.13;6.95;;;13.20;99.90;;;;;;5137090;28;20043;-91
2022/10/25 07:11:05;;;;;;;26.27;8.57;;;13.30;99.90;;;;;;5116016;28;20043;-92
2022/10/25 07:13:32;;;;;;;22.42;7.95;;;13.30;99.90;;;;;;5116108;28;20048;-90
2022/10/25 07:16:05;;;;;;;28.58;8.43;;;14.70;99.90;;;;;;5116024;28;20040;-91
2022/10/25 07:18:32;;;;;;;18.90;7.30;;;13.40;99.90;;;;;;5096405;28;20058;-90
2022/10/25 07:21:02;;;;;;;15.73;6.32;;;15.00;99.90;;;;;;5116178;28;20040;-89
2022/10/25 07:23:29;;;;;;;20.23;6.93;;;14.70;99.90;;;;;;5098091;28;20047;-90
2022/10/25 07:25:55;;;;;;;21.15;7.50;;;13.70;99.90;;;;;;5098218;28;20070;-91
2022/10/25 07:28:21;;;;;;;23.05;6.85;;;13.70;99.90;;;;;;5098135;28;20052;-90
2022/10/25 07:30:47;;;;;;;22.73;7.28;;;14.90;99.90;;;;;;5114776;28;20054;-92
2022/10/25 07:33:15;;;;;;;20.45;5.95;;;13.80;99.90;;;;;;5100649;28;20051;-91
2022/10/25 07:35:46;;;;;;;15.18;6.13;;;13.80;99.90;;;;;;5116359;28;20067;-91
2022/10/25 07:38:13;;;;;;;18.92;5.65;;;13.80;99.90;;;;;;5097742;28;20571;-90
2022/10/25 07:40:39;;;;;;;24.33;6.47;;;13.90;99.90;;;;;;5097554;28;20043;-91
2022/10/25 07:43:05;;;;;;;16.25;5.68;;;13.70;99.90;;;;;;5088453;28;20050;-91
2022/10/25 07:45:31;;;;;;;20.45;5.40;;;;;;;;;;5082716;28;20064;-92
2022/10/25 07:47:57;;;;;;;16.70;5.30;;;;;;;;;;5109319;28;20043;-92
2022/10/25 07:50:23;;;;;;;18.35;4.93;;;;;;;;;;5117372;28;20044;-92
2022/10/25 07:52:49;;;;;;;13.48;4.80;;;;;;;;;;5098201;28;20044;-92
2022/10/25 07:55:15;;;;;;;16.15;5.25;;;15.10;99.90;;;;;;5084882;28;20519;-90
2022/10/25 07:57:41;;;;;;;12.20;4.80;;;;;;;;;;5101002;28;20039;-91
2022/10/25 08:00:08;;;;;;;15.13;5.03;;;;;;;;;;5100410;28;20047;-91
2022/10/25 08:02:34;;;;;;;14.32;5.20;;;;;;;;;;5100557;28;20132;-88
2022/10/25 08:05:00;;;;;;;14.63;5.25;;;;;;;;;;5097058;28;20036;-89
2022/10/25 08:07:27;;;;;;;11.20;4.80;;;;;;;;;;5106578;28;20088;-91
2022/10/25 08:09:53;;;;;;;12.93;4.68;;;;;;;;;;5098512;28;20043;-89
2022/10/25 08:12:19;;;;;;;13.90;4.15;;;;;;;;;;5099027;28;20088;-91
2022/10/25 08:14:45;;;;;;;15.43;4.40;;;;;;;;;;5098103;28;20105;-90
2022/10/25 08:17:11;;;;;;;12.05;4.05;;;;;;;;;;5096191;28;20035;-91
2022/10/25 08:19:37;;;;;;;13.25;4.00;;;;;;;;;;5108779;28;20399;-90
2022/10/25 08:22:03;;;;;;;15.18;4.10;;;;;;;;;;5118634;28;20036;-91
2022/10/25 08:24:30;;;;;;;12.38;4.20;;;;;;;;;;5081397;28;20086;-89
2022/10/25 08:26:56;;;;;;;13.27;3.58;;;;;;;;;;5081561;28;20051;-88
2022/10/25 08:29:22;;;;;;;10.95;3.65;;;;;;;;;;5084660;28;20039;-92
2022/10/25 08:31:48;;;;;;;16.83;4.20;;;;;;;;;;5102347;28;20047;-91
2022/10/25 08:34:14;;;;;;;12.65;3.65;;;;;;;;;;5082215;28;20044;-92
2022/10/25 08:36:40;;;;;;;20.20;4.57;;;;;;;;;;5083703;28;20164;-92
2022/10/25 08:39:06;;;;;;;18.05;4.50;;;;;;;;;;5084024;28;20197;-92
2022/10/25 08:41:52;;;;;;;19.38;4.70;;;;;;;;;;5081746;28;20046;-92
2022/10/25 08:44:21;;;;;;;15.20;4.82;;;;;;;;;;5062726;28;20044;-92
2022/10/25 08:46:54;;;;;;;19.13;5.47;;;;;;;;;;5080437;28;20051;-92
2022/10/25 08:49:30;;;;;;;17.58;4.65;;;;;;;;;;5062404;28;20051;-93
2022/10/25 08:51:57;;;;;;;14.40;4.85;;;;;;;;;;5080767;28;20040;-93
2022/10/25 08:54:28;;;;;;;16.30;4.85;;;;;;;;;;5062747;28;20091;-93
2022/10/25 08:57:20;;;;;;;15.35;5.25;;;15.00;99.90;;;;;;5079547;28;20072;-92
2022/10/25 08:59:52;;;;;;;20.38;5.70;;;16.20;99.90;;;;;;5064443;28;20055;-88
2022/10/25 09:02:32;;;;;;;13.88;5.35;;;15.90;99.90;;;;;;5081930;28;20036;-88
2022/10/25 09:04:58;;;;;;;16.92;5.50;;;16.10;99.90;;;;;;5067445;28;20040;-88
2022/10/25 09:07:42;;;;;;;16.08;5.30;;;;;;;;;;5067467;28;20447;-92
2022/10/25 09:10:22;;;;;;;19.50;6.05;;;15.90;99.90;;;;;;5069150;28;20040;-92
2022/10/25 09:13:12;;;;;;;17.60;5.88;;;16.00;99.90;;;;;;5065878;28;20031;-89
2022/10/25 09:16:00;;;;;;;19.83;5.90;;;15.90;99.90;;;;;;5065067;28;20139;-88
2022/10/25 09:18:53;;;;;;;21.15;5.90;;;15.90;99.90;;;;;;5082813;28;20567;-93
2022/10/25 09:21:32;;;;;;;24.10;6.47;;;;;;;;;;5092196;28;20424;-92
2022/10/25 09:24:03;;;;;;;15.73;5.82;;;;;;;;;;5102259;28;20052;-93
2022/10/25 09:26:38;;;;;;;12.32;5.68;;;;;;;;;;5067197;28;20040;-93
2022/10/25 09:29:04;;;;;;;21.38;6.20;;;;;;;;;;5068808;28;20068;-93
2022/10/25 09:31:36;;;;;;;14.85;5.47;;;;;;;;;;5086446;28;20048;-93
2022/10/25 09:34:05;;;;;;;21.02;6.07;;;;;;;;;;5066929;28;20058;-93
2022/10/25 09:36:37;;;;;;;13.45;5.00;;;;;;;;;;5067643;28;20043;-92
2022/10/25 09:39:07;;;;;;;14.13;5.07;;;;;;;;;;5068903;28;20066;-92
2022/10/25 09:41:33;;;;;;;15.15;4.65;;;;;;;;;;5086410;28;20040;-93
2022/10/25 09:44:19;;;;;;;18.13;4.82;;;;;;;;;;5067416;28;20040;-93
2022/10/25 09:46:53;;;;;;;15.65;4.93;;;;;;;;;;5068156;28;20059;-92
2022/10/25 09:49:29;;;;;;;14.65;4.75;;;;;;;;;;5068439;28;20089;-93
2022/10/25 09:51:59;;;;;;;18.90;4.90;;;;;;;;;;5068284;28;20047;-92
2022/10/25 09:54:36;;;;;;;15.52;4.15;;;;;;;;;;5075292;28;20051;-92
2022/10/25 09:57:03;;;;;;;11.80;4.55;;;;;;;;;;5071196;28;20044;-92
2022/10/25 09:59:29;;;;;;;16.35;4.63;;;;;;;;;;5068625;28;20200;-92
2022/10/25 10:01:55;;;;;;;21.25;4.40;;;;;;;;;;5069181;28;20063;-92
2022/10/25 10:04:29;;;;;;;16.27;4.10;;;;;;;;;;5069121;28;20055;-92
2022/10/25 10:06:58;;;;;;;14.20;3.80;;;;;;;;;;5102750;28;20048;-94
2022/10/25 10:09:25;;;;;;;18.02;4.18;;;;;;;;;;5101142;28;20182;-92
2022/10/25 10:11:54;;;;;;;12.32;3.80;;;;;;;;;;5085301;28;20048;-92
2022/10/25 10:14:29;;;;;;;14.95;3.80;;;;;;;;;;5083014;28;20125;-91
2022/10/25 10:16:55;;;;;;;;;;;;;;;;;;5082767;28;20055;-92
2022/10/25 10:19:21;;;;;;;;;;;;;;;;;;5082997;28;19927;-92
2022/10/25 10:21:52;;;;;;;15.13;3.65;;;;;;;;;;5080162;28;19920;-92
2022/10/25 10:24:20;;;;;;;14.43;3.58;;;;;;;;;;5081344;28;20042;-93
2022/10/25 10:26:54;;;;;;;15.90;3.60;;;;;;;;;;5083179;28;20040;-92
2022/10/25 10:29:24;;;;;;;15.50;3.88;;;;;;;;;;5068005;28;20127;-92
2022/10/25 10:31:51;;;;;;;12.32;3.17;;;;;;;;;;5090824;28;20036;-93
2022/10/25 10:34:20;;;;;;;12.60;3.15;;;;;;;;;;5092766;28;20121;-85
2022/10/25 10:36:49;;;;;;;11.45;2.97;;;;;;;;;;5101986;28;20051;-91
2022/10/25 10:39:22;;;;;;;12.05;3.13;;;;;;;;;;5084614;28;20063;-91
2022/10/25 10:41:59;;;;;;;11.50;2.80;;;;;;;;;;5102199;28;20044;-91
2022/10/25 10:44:27;;;;;;;13.10;3.10;;;;;;;;;;5101605;28;20051;-91
2022/10/25 10:46:54;;;;;;;9.50;2.55;;;;;;;;;;5085364;28;20040;-91
2022/10/25 10:49:21;;;;;;;9.35;2.38;;;;;;;;;;5083971;28;20054;-91
2022/10/25 10:51:47;;;;;;;11.05;2.50;;;;;;;;;;5090404;28;20035;-93
2022/10/25 10:54:37;;;;;;;11.45;2.67;;;;;;;;;;5084489;28;20131;-91
2022/10/25 10:57:04;;;;;;;11.60;2.33;;;;;;;;;;5088730;28;20411;-91
2022/10/25 10:59:30;;;;;;;11.73;2.75;;;;;;;;;;5084613;28;20127;-91
2022/10/25 11:01:57;;;;;;;12.35;2.10;;;;;;;;;;5085221;28;20066;-91
2022/10/25 11:04:23;;;;;;;8.38;2.10;;;;;;;;;;5119108;28;20046;-91
2022/10/25 11:06:49;;;;;;;10.57;2.38;;;;;;;;;;5084632;28;20108;-91
2022/10/25 11:09:21;;;;;;;8.02;2.55;;;;;;;;;;5082814;28;20353;-92
2022/10/25 11:12:04;;;;;;;10.25;2.40;;;;;;;;;;5088092;28;20218;-90
2022/10/25 11:14:31;;;;;;;12.52;2.60;;;;;;;;;;5096924;28;20040;-92
2022/10/25 11:17:00;;;;;;;9.05;2.28;;;;;;;;;;5068047;28;20050;-91
2022/10/25 11:19:26;;;;;;;12.18;2.70;;;;;;;;;;5064081;28;20107;-91
2022/10/25 11:21:57;;;;;;;13.23;2.38;;;;;;;;;;5096468;28;20476;-92
2022/10/25 11:24:36;;;;;;;13.15;2.50;;;;;;;;;;5083246;28;20083;-90
2022/10/25 11:27:03;;;;;;;13.00;2.50;;;;;;;;;;5083833;28;20127;-89
2022/10/25 11:29:29;;;;;;;9.43;2.20;;;;;;;;;;5082803;28;20054;-89
2022/10/25 11:32:14;;;;;;;8.25;2.00;;;;;;;;;;5081956;28;20044;-89
2022/10/25 11:34:52;;;;;;;8.93;2.22;;;;;;;;;;5081785;28;20044;-89
2022/10/25 11:37:33;;;;;;;7.57;2.25;;;;;;;;;;5083204;28;20047;-90
2022/10/25 11:40:11;;;;;;;11.27;2.13;;;;;;;;;;5099378;28;20052;-91
2022/10/25 11:42:43;;;;;;;12.50;2.47;;;;;;;;;;5083425;28;20051;-90
2022/10/25 11:45:12;;;;;;;8.80;2.70;;;;;;;;;;5100812;28;20036;-90
2022/10/25 11:47:51;;;;;;;8.05;2.03;;;16.00;99.90;;;;;;5099873;28;20503;-88
2022/10/25 11:50:45;;;;;;;8.90;2.30;;;22.80;99.90;;;;;;5095213;28;20047;-87
2022/10/25 11:53:50;;;;;;;6.78;1.90;;;23.70;99.90;;;;;;5115032;28;20388;-87
2022/10/25 11:56:40;;;;;;;8.50;2.30;;;23.90;99.90;;;;;;5115387;28;20412;-87
2022/10/25 11:59:27;;;;;;;11.73;2.20;;;23.70;99.90;;;;;;5114541;28;20108;-86
2022/10/25 12:02:10;;;;;;;10.20;2.50;;;23.10;99.90;;;;;;5098249;28;20159;-86
2022/10/25 12:05:00;;;;;;;9.77;2.50;;;22.40;99.90;;;;;;5096806;28;20375;-86
2022/10/25 12:07:58;;;;;;;11.52;2.35;;;21.90;99.90;;;;;;5096674;28;20054;-86
2022/10/25 12:10:30;;;;;;;6.35;1.92;;;;;;;;;;5077679;28;20137;-89
2022/10/25 12:13:01;;;;;;;10.55;2.15;;;;;;;;;;5098047;28;20048;-90
2022/10/25 12:15:36;;;;;;;11.48;2.50;;;;;;;;;;5078197;28;20511;-90
2022/10/25 12:18:04;;;;;;;6.95;2.17;;;;;;;;;;5117240;28;20044;-90
2022/10/25 12:20:32;;;;;;;6.85;2.17;;;;;;;;;;5119330;28;20094;-92
2022/10/25 12:22:59;;;;;;;6.95;2.20;;;;;;;;;;5117937;28;20044;-91
2022/10/25 12:25:27;;;;;;;7.90;2.10;;;21.50;99.90;;;;;;5099254;28;20084;-90
2022/10/25 12:28:05;;;;;;;11.23;2.47;;;23.10;99.90;;;;;;5080200;28;20055;-91
2022/10/25 12:30:32;;;;;;;13.15;2.10;;;24.40;99.90;;;;;;5114845;28;20050;-88
2022/10/25 12:33:36;;;;;;;7.97;2.17;;;25.50;99.90;;;;;;5098870;28;20043;-89
2022/10/25 12:36:27;;;;;;;8.70;2.28;;;25.50;99.90;;;;;;5094668;28;20043;-87
2022/10/25 12:38:54;;;;;;;11.68;2.83;;;25.10;99.90;;;;;;5044941;28;20070;-86
2022/10/25 12:41:35;;;;;;;6.22;1.83;;;25.20;99.90;;;;;;5079980;28;20522;-87
2022/10/25 12:44:11;;;;;;;8.75;1.98;;;25.30;99.80;;;;;;5093227;28;20044;-87
2022/10/25 12:46:46;;;;;;;9.23;2.20;;;25.80;99.10;;;;;;5077568;28;20051;-90
2022/10/25 12:49:14;;;;;;;;;;;26.30;98.60;;;;;;5096453;28;20048;-90
2022/10/25 12:51:57;;;;;;;8.25;2.25;;;25.90;98.20;;;;;;5076757;28;19920;-88
2022/10/25 12:54:29;;;;;;;7.65;2.58;;;24.90;99.30;;;;;;5060881;28;20044;-86
2022/10/25 12:57:07;;;;;;;8.00;2.20;;;;;;;;;;5077830;28;20055;-90
2022/10/25 12:59:39;;;;;;;11.88;2.30;;;;;;;;;;5078996;28;20393;-90
2022/10/25 13:02:24;;;;;;;6.00;1.95;;;;;;;;;;5095811;28;20044;-90
2022/10/25 13:05:08;;;;;;;8.27;2.20;;;;;;;;;;5094633;28;20048;-91
2022/10/25 13:07:35;;;;;;;7.03;2.30;;;;;;;;;;5078532;28;20139;-91
2022/10/25 13:10:06;;;;;;;8.70;2.28;;;;;;;;;;5097153;28;20043;-90
2022/10/25 13:12:32;;;;;;;7.28;2.13;;;;;;;;;;5062236;28;20181;-91
2022/10/25 13:14:59;;;;;;;12.10;2.30;;;;;;;;;;5098146;28;20044;-90
2022/10/25 13:17:25;;;;;;;8.30;2.47;;;;;;;;;;5087095;28;20044;-91
2022/10/25 13:19:52;;;;;;;8.65;2.20;;;;;;;;;;5080615;28;20051;-90
2022/10/25 13:22:30;;;;;;;6.90;1.90;;;;;;;;;;5080850;28;20074;-91
2022/10/25 13:24:57;;;;;;;11.07;2.67;;;;;;;;;;5078800;28;20048;-90
2022/10/25 13:27:30;;;;;;;8.95;2.40;;;;;;;;;;5095047;28;20048;-91